Time;durP1;ratioP1;P1;durP2;ratioP2;P2;SDS_P1;SDS_P2;PMS_P1;PMS_P2;Temp;Humidity;BMP_temperature;BMP_pressure;BME280_temperature;BME280_humidity;BME280_pressure;Samples;Min_cycle;Max_cycle;Signal;HPM_P1;HPM_P2
2021/01/29 00:02:07;;;;;;;41.25;23.45;;;1.70;98.80;;;;;;6152766;23;20427;-82
2021/01/29 00:04:33;;;;;;;43.75;24.33;;;1.40;99.90;;;;;;6155294;23;20311;-85
2021/01/29 00:06:59;;;;;;;45.38;25.17;;;1.60;99.90;;;;;;6155482;23;20480;-83
2021/01/29 00:09:25;;;;;;;47.42;26.05;;;1.90;99.90;;;;;;6155319;23;19994;-84
2021/01/29 00:11:50;;;;;;;43.67;25.13;;;1.90;99.90;;;;;;6154855;23;20005;-85
2021/01/29 00:14:17;;;;;;;46.75;26.13;;;1.90;99.90;;;;;;6155392;23;20013;-86
2021/01/29 00:16:43;;;;;;;45.22;25.27;;;1.90;99.90;;;;;;6156288;23;20072;-84
2021/01/29 00:19:22;;;;;;;48.25;25.40;;;2.10;99.90;;;;;;6130132;23;20489;-84
2021/01/29 00:21:51;;;;;;;40.75;24.42;;;2.00;99.90;;;;;;6130323;23;20091;-81
2021/01/29 00:24:17;;;;;;;42.28;25.02;;;2.00;99.90;;;;;;6129567;23;19994;-82
2021/01/29 00:26:43;;;;;;;43.03;22.90;;;2.00;99.90;;;;;;6155339;23;20012;-82
2021/01/29 00:29:09;;;;;;;30.88;18.48;;;1.80;99.90;;;;;;6129347;23;20026;-82
2021/01/29 00:31:35;;;;;;;34.70;18.67;;;1.60;99.90;;;;;;6154688;23;20466;-82
2021/01/29 00:34:01;;;;;;;31.80;18.50;;;1.70;99.90;;;;;;6155004;23;20005;-84
2021/01/29 00:36:27;;;;;;;28.85;17.77;;;1.50;99.90;;;;;;6156585;23;20032;-82
2021/01/29 00:38:52;;;;;;;26.80;16.35;;;1.40;99.90;;;;;;6154978;23;20015;-81
2021/01/29 00:41:23;;;;;;;26.55;15.50;;;1.30;99.90;;;;;;6155424;23;19998;-83
2021/01/29 00:43:49;;;;;;;;;;;1.50;99.90;;;;;;6130103;23;20069;-80
2021/01/29 00:46:15;;;;;;;27.15;15.10;;;1.70;99.90;;;;;;6155539;23;19897;-82
2021/01/29 00:48:41;;;;;;;20.52;13.90;;;1.70;99.90;;;;;;6129442;23;20051;-82
2021/01/29 00:51:07;;;;;;;20.65;13.55;;;1.80;99.90;;;;;;6155755;23;20084;-81
2021/01/29 00:53:32;;;;;;;20.30;13.52;;;1.60;99.90;;;;;;6156414;23;20438;-85
2021/01/29 00:55:58;;;;;;;19.85;14.15;;;1.40;99.90;;;;;;6128792;23;20013;-82
2021/01/29 00:58:24;;;;;;;19.50;12.77;;;1.20;99.90;;;;;;6155231;23;20048;-81
2021/01/29 01:00:49;;;;;;;21.70;13.10;;;1.30;99.90;;;;;;6128834;23;20431;-81
2021/01/29 01:03:15;;;;;;;23.20;13.65;;;1.40;99.90;;;;;;6155412;23;20059;-82
2021/01/29 01:05:43;;;;;;;23.80;12.98;;;1.20;99.90;;;;;;6128924;23;19997;-81
2021/01/29 01:08:09;;;;;;;19.10;12.63;;;1.30;99.90;;;;;;6154907;23;19997;-84
2021/01/29 01:10:35;;;;;;;21.50;12.80;;;1.50;99.20;;;;;;6154884;23;20052;-82
2021/01/29 01:13:01;;;;;;;21.30;12.50;;;1.50;99.20;;;;;;6128681;23;19997;-80
2021/01/29 01:15:27;;;;;;;19.13;12.27;;;1.50;98.80;;;;;;6128473;23;20017;-83
2021/01/29 01:17:58;;;;;;;21.15;11.77;;;1.50;98.80;;;;;;6154794;23;20004;-80
2021/01/29 01:20:27;;;;;;;19.70;12.40;;;1.50;99.20;;;;;;6154675;23;20005;-81
2021/01/29 01:22:53;;;;;;;15.85;11.90;;;1.60;98.70;;;;;;6154699;23;19997;-81
2021/01/29 01:25:18;;;;;;;17.77;12.55;;;1.60;98.70;;;;;;6154478;23;20060;-82
2021/01/29 01:27:44;;;;;;;18.75;12.57;;;1.50;98.60;;;;;;6154248;23;19997;-80
2021/01/29 01:30:15;;;;;;;20.13;13.07;;;1.00;99.90;;;;;;6154464;23;19993;-82
2021/01/29 01:32:40;;;;;;;21.05;13.30;;;1.00;99.90;;;;;;6154522;23;20105;-80
2021/01/29 01:35:08;;;;;;;20.80;13.73;;;1.10;99.90;;;;;;6153835;23;20040;-79
2021/01/29 01:37:34;;;;;;;19.38;12.63;;;1.40;99.90;;;;;;6154873;23;20020;-84
2021/01/29 01:39:59;;;;;;;18.48;12.40;;;1.60;99.90;;;;;;6154055;23;20423;-80
2021/01/29 01:42:25;;;;;;;25.40;12.57;;;1.70;99.40;;;;;;6153811;23;20064;-80
2021/01/29 01:44:51;;;;;;;17.98;11.48;;;1.80;98.90;;;;;;6154576;23;20003;-81
2021/01/29 01:47:29;;;;;;;18.48;12.15;;;1.90;98.10;;;;;;6154307;23;19993;-81
2021/01/29 01:49:59;;;;;;;17.02;11.30;;;1.70;98.60;;;;;;6128369;23;20044;-82
2021/01/29 01:52:30;;;;;;;17.38;11.18;;;1.80;98.60;;;;;;6154553;23;19990;-82
2021/01/29 01:55:05;;;;;;;15.00;10.50;;;2.00;98.40;;;;;;6154506;23;20050;-84
2021/01/29 01:57:33;;;;;;;15.55;10.32;;;2.00;98.00;;;;;;6128094;23;19997;-81
2021/01/29 02:00:10;;;;;;;15.25;10.50;;;1.90;97.80;;;;;;6153920;23;19993;-81
2021/01/29 02:02:38;;;;;;;15.30;10.38;;;1.70;98.30;;;;;;6127605;23;20048;-81
2021/01/29 02:05:09;;;;;;;13.45;9.45;;;1.50;99.10;;;;;;6154534;23;19993;-84
2021/01/29 02:07:53;;;;;;;13.00;9.57;;;1.60;99.00;;;;;;6155024;23;20002;-82
2021/01/29 02:10:21;;;;;;;13.50;9.90;;;1.60;98.20;;;;;;6154771;23;20025;-81
2021/01/29 02:12:47;;;;;;;13.18;10.02;;;1.70;98.10;;;;;;6128364;23;20009;-82
2021/01/29 02:15:19;;;;;;;12.27;9.30;;;1.80;98.10;;;;;;6154149;23;20411;-87
2021/01/29 02:17:54;;;;;;;11.95;9.25;;;1.80;97.20;;;;;;6128557;23;20001;-82
2021/01/29 02:20:38;;;;;;;14.23;8.63;;;1.70;97.20;;;;;;6128238;23;20446;-81
2021/01/29 02:23:31;;;;;;;13.73;9.07;;;1.70;97.00;;;;;;6154709;23;20056;-84
2021/01/29 02:26:22;;;;;;;13.63;8.80;;;1.70;97.50;;;;;;6128317;23;20304;-83
2021/01/29 02:29:30;;;;;;;13.43;9.27;;;1.60;97.60;;;;;;6153861;23;20116;-81
2021/01/29 02:32:26;;;;;;;11.75;8.32;;;1.50;99.10;;;;;;6127847;23;20084;-82
2021/01/29 02:35:19;;;;;;;15.98;9.18;;;1.60;99.60;;;;;;6127722;23;20016;-78
2021/01/29 02:38:20;;;;;;;11.73;9.15;;;1.60;98.90;;;;;;6153627;23;19993;-81
2021/01/29 02:41:05;;;;;;;11.10;8.57;;;1.50;99.60;;;;;;6154235;23;20016;-81
2021/01/29 02:43:36;;;;;;;11.25;8.80;;;1.60;99.50;;;;;;6153764;23;20016;-80
2021/01/29 02:46:14;;;;;;;13.70;9.30;;;1.60;99.40;;;;;;6153981;23;20069;-82
2021/01/29 02:48:52;;;;;;;14.88;8.82;;;1.40;99.90;;;;;;6127809;23;20375;-80
2021/01/29 02:51:45;;;;;;;13.55;9.05;;;1.60;99.90;;;;;;6154287;23;19999;-79
2021/01/29 02:54:22;;;;;;;16.00;9.65;;;1.70;99.90;;;;;;6103954;23;20009;-80
2021/01/29 02:57:05;;;;;;;15.15;9.23;;;1.60;99.90;;;;;;6132061;23;20005;-88
2021/01/29 02:59:38;;;;;;;15.02;9.82;;;1.50;99.90;;;;;;6161057;23;20008;-84
2021/01/29 03:02:13;;;;;;;15.68;9.65;;;1.50;99.90;;;;;;6163782;23;20014;-92
2021/01/29 03:05:07;;;;;;;18.13;10.45;;;1.60;99.90;;;;;;6160074;23;20001;-89
2021/01/29 03:07:40;;;;;;;13.43;9.57;;;1.50;99.90;;;;;;6142408;23;20026;-80
2021/01/29 03:10:24;;;;;;;14.80;10.15;;;1.40;99.90;;;;;;6130631;23;20036;-84
2021/01/29 03:12:57;;;;;;;14.48;9.85;;;1.30;99.90;;;;;;6155699;23;20044;-88
2021/01/29 03:15:33;;;;;;;15.70;10.30;;;1.40;99.90;;;;;;6129878;23;20017;-80
2021/01/29 03:18:09;;;;;;;15.38;9.95;;;1.50;99.90;;;;;;6155900;23;20023;-82
2021/01/29 03:21:02;;;;;;;16.27;8.93;;;1.10;99.90;;;;;;6155578;23;20075;-80
2021/01/29 03:23:39;;;;;;;13.98;9.50;;;1.30;99.90;;;;;;6136132;23;20757;-82
2021/01/29 03:26:12;;;;;;;14.85;9.30;;;1.10;99.90;;;;;;6156173;23;20036;-82
2021/01/29 03:28:48;;;;;;;15.93;10.15;;;1.30;99.90;;;;;;6155677;23;20378;-86
2021/01/29 03:31:15;;;;;;;13.13;10.20;;;1.40;99.90;;;;;;6155664;23;20004;-87
2021/01/29 03:33:44;;;;;;;14.13;9.93;;;1.40;99.90;;;;;;6155689;23;20029;-82
2021/01/29 03:36:17;;;;;;;12.77;9.43;;;1.50;99.90;;;;;;6129697;23;20459;-81
2021/01/29 03:38:50;;;;;;;15.48;10.25;;;1.50;99.90;;;;;;6156973;23;20380;-81
2021/01/29 03:41:33;;;;;;;15.32;9.30;;;1.60;99.90;;;;;;6157100;23;20010;-83
2021/01/29 03:44:16;;;;;;;13.75;9.70;;;1.60;99.90;;;;;;6129625;23;20012;-80
2021/01/29 03:46:50;;;;;;;14.10;9.55;;;1.70;99.90;;;;;;6130964;23;20297;-85
2021/01/29 03:49:42;;;;;;;15.45;10.23;;;1.50;99.90;;;;;;6155645;23;20001;-81
2021/01/29 03:52:27;;;;;;;15.77;10.30;;;1.40;99.90;;;;;;6155027;23;20037;-88
2021/01/29 03:55:04;;;;;;;17.05;10.52;;;1.60;99.90;;;;;;6129769;23;20017;-89
2021/01/29 03:57:41;;;;;;;18.75;10.50;;;1.20;99.90;;;;;;6156740;23;20072;-81
2021/01/29 04:00:25;;;;;;;15.02;10.40;;;1.20;99.90;;;;;;6131283;23;20010;-82
2021/01/29 04:03:06;;;;;;;15.88;11.10;;;1.30;99.90;;;;;;6159510;23;20005;-82
2021/01/29 04:06:02;;;;;;;18.73;10.90;;;0.90;99.90;;;;;;6132747;23;20356;-82
2021/01/29 04:08:37;;;;;;;13.80;10.18;;;1.00;99.90;;;;;;6157283;23;19997;-81
2021/01/29 04:11:07;;;;;;;16.38;10.30;;;0.70;99.90;;;;;;6129609;23;19998;-82
2021/01/29 04:13:47;;;;;;;13.80;10.10;;;0.20;99.90;;;;;;6130063;23;20390;-84
2021/01/29 04:16:31;;;;;;;14.73;10.57;;;0.60;99.90;;;;;;6155429;23;20009;-84
2021/01/29 04:19:00;;;;;;;15.90;10.63;;;1.00;99.90;;;;;;6159105;23;19998;-89
2021/01/29 04:21:34;;;;;;;15.25;10.88;;;1.10;99.90;;;;;;6132090;23;20029;-79
2021/01/29 04:24:18;;;;;;;18.42;10.90;;;1.10;99.90;;;;;;6159277;23;20008;-88
2021/01/29 04:27:09;;;;;;;19.90;10.48;;;1.20;99.90;;;;;;6161545;23;20081;-92
2021/01/29 04:30:03;;;;;;;21.88;11.77;;;1.20;99.90;;;;;;6159885;23;20001;-92
2021/01/29 04:32:36;;;;;;;19.52;12.25;;;0.80;99.90;;;;;;6117864;23;20006;-92
2021/01/29 04:35:05;;;;;;;16.35;11.95;;;1.00;99.90;;;;;;6156003;23;20131;-86
2021/01/29 04:37:38;;;;;;;18.05;11.57;;;0.70;99.90;;;;;;6105440;23;20029;-89
2021/01/29 04:40:34;;;;;;;19.17;11.95;;;0.80;99.90;;;;;;6156518;23;20007;-82
2021/01/29 04:43:28;;;;;;;17.08;11.57;;;0.90;99.90;;;;;;6129680;23;20005;-83
2021/01/29 04:46:31;;;;;;;19.90;11.93;;;0.70;99.90;;;;;;6155260;23;20044;-81
2021/01/29 04:49:23;;;;;;;20.25;12.88;;;1.00;99.90;;;;;;6155798;23;20005;-85
2021/01/29 04:52:40;;;;;;;18.67;11.65;;;0.90;99.90;;;;;;6128313;23;20315;-84
2021/01/29 04:55:48;;;;;;;16.83;11.95;;;0.40;99.90;;;;;;6050759;23;20341;-79
2021/01/29 04:58:14;;;;;;;18.02;11.30;;;0.70;99.90;;;;;;6063314;23;20079;-86
2021/01/29 05:01:09;;;;;;;23.20;11.80;;;0.70;99.90;;;;;;6156482;23;20471;-88
2021/01/29 05:03:57;;;;;;;21.23;12.48;;;0.70;99.90;;;;;;6156074;23;20000;-91
2021/01/29 05:06:32;;;;;;;18.15;11.65;;;0.90;99.90;;;;;;6156455;23;20473;-83
2021/01/29 05:09:21;;;;;;;22.30;11.90;;;0.90;99.90;;;;;;6128992;23;20009;-85
2021/01/29 05:11:53;;;;;;;21.43;12.60;;;1.10;99.90;;;;;;6155895;23;20411;-86
2021/01/29 05:15:04;;;;;;;20.17;12.95;;;1.00;99.90;;;;;;6155492;23;20343;-84
2021/01/29 05:17:54;;;;;;;20.63;12.40;;;0.90;99.90;;;;;;6129636;23;20311;-82
2021/01/29 05:20:48;;;;;;;21.75;13.38;;;1.00;99.90;;;;;;6155435;23;20008;-80
2021/01/29 05:23:19;;;;;;;19.73;13.23;;;1.00;99.90;;;;;;6155229;23;20063;-92
2021/01/29 05:26:12;;;;;;;17.77;13.32;;;0.80;99.90;;;;;;6157170;23;20005;-85
2021/01/29 05:28:56;;;;;;;21.90;12.75;;;0.80;99.90;;;;;;6155221;23;20005;-84
2021/01/29 05:31:50;;;;;;;19.40;13.15;;;0.90;99.90;;;;;;6154587;23;20284;-80
2021/01/29 05:34:50;;;;;;;24.45;13.70;;;0.80;99.90;;;;;;6154496;23;20005;-82
2021/01/29 05:37:22;;;;;;;;;;;0.90;99.90;;;;;;6053435;23;20009;-81
2021/01/29 05:40:06;;;;;;;18.27;11.45;;;0.90;99.90;;;;;;6155231;23;20206;-80
2021/01/29 05:42:59;;;;;;;18.58;13.05;;;0.80;99.90;;;;;;6155481;23;20056;-80
2021/01/29 05:45:49;;;;;;;18.30;12.30;;;0.80;99.90;;;;;;6155421;23;20028;-82
2021/01/29 05:48:58;;;;;;;19.45;12.40;;;0.90;99.90;;;;;;6129794;23;20079;-81
2021/01/29 05:51:48;;;;;;;19.13;11.70;;;0.60;99.90;;;;;;6157762;23;20005;-92
2021/01/29 05:54:29;;;;;;;19.63;12.02;;;0.70;99.90;;;;;;6133605;23;20020;-94
2021/01/29 05:57:17;;;;;;;18.63;12.75;;;0.80;99.90;;;;;;6133596;23;20052;-94
2021/01/29 05:59:49;;;;;;;22.00;12.63;;;0.90;99.90;;;;;;6133814;23;20319;-80
2021/01/29 06:02:36;;;;;;;19.08;12.32;;;0.80;99.90;;;;;;6129581;23;20079;-86
2021/01/29 06:05:05;;;;;;;17.92;12.23;;;0.90;99.90;;;;;;6154890;23;20004;-81
2021/01/29 06:08:08;;;;;;;17.40;12.15;;;1.00;99.90;;;;;;6155920;23;19998;-82
2021/01/29 06:11:02;;;;;;;20.60;12.70;;;1.10;99.90;;;;;;6128656;23;20022;-83
2021/01/29 06:17:31;;;;;;;33.05;17.15;;;0.80;99.90;;;;;;6150155;23;20040;-85
2021/01/29 06:20:33;;;;;;;25.50;16.13;;;0.80;99.90;;;;;;6084739;23;20021;-81
2021/01/29 06:23:19;;;;;;;32.83;17.55;;;0.90;99.90;;;;;;6153643;23;20487;-84
2021/01/29 06:26:10;;;;;;;37.10;21.70;;;0.90;99.90;;;;;;6128880;23;20545;-92
2021/01/29 06:29:18;;;;;;;47.65;23.77;;;1.10;99.90;;;;;;6129915;23;20384;-81
2021/01/29 06:32:03;;;;;;;71.80;34.90;;;1.70;99.90;;;;;;6154118;23;20015;-82
2021/01/29 06:34:50;;;;;;;35.00;20.95;;;1.70;99.90;;;;;;6149406;23;20331;-81
2021/01/29 06:37:34;;;;;;;26.45;17.85;;;1.50;99.90;;;;;;6154409;23;20309;-82
2021/01/29 06:40:37;;;;;;;27.52;17.38;;;1.40;99.90;;;;;;6154665;23;20005;-81
2021/01/29 06:43:31;;;;;;;27.90;16.20;;;0.90;99.90;;;;;;6127372;23;20037;-83
2021/01/29 06:46:33;;;;;;;26.98;17.15;;;1.20;99.90;;;;;;6155229;23;20041;-81
2021/01/29 06:49:28;;;;;;;23.23;16.05;;;1.40;99.90;;;;;;6129520;23;20020;-80
2021/01/29 06:52:02;;;;;;;31.83;18.15;;;1.50;99.90;;;;;;6129095;23;20009;-81
2021/01/29 06:55:05;;;;;;;30.65;18.75;;;1.60;99.90;;;;;;6129656;23;20009;-82
2021/01/29 06:57:49;;;;;;;31.85;18.30;;;1.70;99.90;;;;;;6122361;23;20009;-82
2021/01/29 07:00:53;;;;;;;31.85;18.55;;;1.40;99.90;;;;;;6129104;23;20093;-82
2021/01/29 07:03:51;;;;;;;38.60;17.95;;;1.50;99.90;;;;;;6104513;23;20009;-82
2021/01/29 07:06:57;;;;;;;53.13;26.45;;;1.60;99.90;;;;;;6129342;23;20339;-85
2021/01/29 07:10:01;;;;;;;105.40;47.88;;;2.00;99.90;;;;;;6131514;23;20009;-86
2021/01/29 07:12:38;;;;;;;28.65;19.70;;;3.10;99.90;;;;;;6132114;23;20009;-83
2021/01/29 07:15:27;;;;;;;29.33;16.75;;;2.90;99.90;;;;;;6130746;23;20040;-92
2021/01/29 07:18:07;;;;;;;31.13;16.23;;;2.30;99.90;;;;;;6112110;23;20017;-89
2021/01/29 07:20:39;;;;;;;26.17;16.17;;;2.20;99.90;;;;;;6156386;23;20036;-90
2021/01/29 07:23:26;;;;;;;30.27;18.10;;;2.30;99.90;;;;;;6158133;23;20080;-89
2021/01/29 07:26:02;;;;;;;34.35;20.52;;;2.50;99.90;;;;;;6132324;23;20010;-86
2021/01/29 07:29:03;;;;;;;33.50;20.27;;;2.60;99.90;;;;;;6133323;23;20374;-87
2021/01/29 07:31:56;;;;;;;31.33;19.67;;;2.70;99.90;;;;;;6158336;23;20009;-84
2021/01/29 07:34:25;;;;;;;31.63;20.88;;;3.10;99.20;;;;;;6131866;23;20013;-87
2021/01/29 07:37:18;;;;;;;34.38;20.83;;;3.40;98.20;;;;;;6133690;23;20014;-90
2021/01/29 07:40:05;;;;;;;38.80;22.05;;;3.60;97.20;;;;;;6158815;23;19998;-91
2021/01/29 07:42:49;;;;;;;42.22;23.65;;;3.70;97.30;;;;;;6157871;23;20300;-89
2021/01/29 07:45:59;;;;;;;45.22;24.42;;;3.80;97.30;;;;;;6133584;23;20068;-89
2021/01/29 07:48:53;;;;;;;42.10;24.73;;;3.90;97.10;;;;;;6159576;23;20065;-90
2021/01/29 07:51:43;;;;;;;37.83;22.95;;;4.20;96.40;;;;;;6158639;23;20002;-89
2021/01/29 07:54:27;;;;;;;37.47;23.92;;;4.40;95.50;;;;;;6158979;23;20155;-87
2021/01/29 07:57:11;;;;;;;55.38;25.00;;;4.50;94.50;;;;;;6157322;23;20016;-83
2021/01/29 08:00:01;;;;;;;37.22;22.60;;;4.70;92.70;;;;;;6132555;23;20317;-87
2021/01/29 08:02:54;;;;;;;40.60;24.15;;;4.80;92.60;;;;;;6158082;23;20012;-87
2021/01/29 08:05:27;;;;;;;39.00;23.50;;;5.10;91.80;;;;;;6131040;23;20018;-86
2021/01/29 08:08:21;;;;;;;43.45;24.95;;;5.30;90.60;;;;;;6130484;23;20237;-88
2021/01/29 08:10:51;;;;;;;44.67;23.38;;;5.10;90.10;;;;;;6131423;23;20032;-90
2021/01/29 08:13:37;;;;;;;43.95;23.60;;;5.30;88.90;;;;;;6156720;23;20316;-88
2021/01/29 08:16:22;;;;;;;37.55;22.85;;;5.60;87.50;;;;;;6129828;23;20033;-84
2021/01/29 08:18:59;;;;;;;34.60;22.42;;;5.80;85.60;;;;;;6130295;23;20018;-88
2021/01/29 08:21:56;;;;;;;36.20;22.30;;;6.10;82.10;;;;;;6130223;23;20060;-89
2021/01/29 08:24:45;;;;;;;38.40;22.85;;;6.00;80.40;;;;;;6155253;23;19993;-84
2021/01/29 08:27:39;;;;;;;38.53;25.33;;;6.00;80.50;;;;;;6154523;23;20009;-87
2021/01/29 08:30:21;;;;;;;37.28;24.60;;;6.20;78.90;;;;;;6130007;23;20009;-83
2021/01/29 08:33:16;;;;;;;40.35;24.50;;;6.40;78.20;;;;;;6130023;23;20014;-87
2021/01/29 08:36:05;;;;;;;40.72;24.38;;;6.60;76.40;;;;;;6155698;23;20088;-84
2021/01/29 08:38:56;;;;;;;42.55;22.70;;;6.40;76.60;;;;;;6155035;23;20348;-86
2021/01/29 08:41:28;;;;;;;41.55;23.27;;;6.10;77.40;;;;;;6153795;23;20029;-84
2021/01/29 08:44:15;;;;;;;48.17;23.95;;;6.20;76.10;;;;;;6130116;23;20022;-88
2021/01/29 08:47:18;;;;;;;40.42;20.75;;;6.70;73.80;;;;;;6155740;23;20009;-85
2021/01/29 08:49:53;;;;;;;37.85;19.90;;;6.60;70.40;;;;;;6128716;23;20069;-86
2021/01/29 08:52:39;;;;;;;32.53;20.33;;;6.70;70.90;;;;;;6154362;23;19997;-89
2021/01/29 08:55:41;;;;;;;34.20;19.10;;;6.80;70.50;;;;;;6128214;23;20010;-84
2021/01/29 08:58:11;;;;;;;35.30;20.85;;;7.00;68.60;;;;;;6062652;23;20002;-84
2021/01/29 09:00:40;;;;;;;37.72;20.48;;;6.80;69.70;;;;;;6138928;23;20022;-87
2021/01/29 09:03:12;;;;;;;31.37;19.37;;;6.90;66.90;;;;;;6154915;23;20005;-83
2021/01/29 09:05:42;;;;;;;30.60;19.25;;;7.00;66.10;;;;;;6129029;23;20316;-83
2021/01/29 09:08:09;;;;;;;30.88;17.98;;;7.00;66.00;;;;;;6154038;23;20332;-86
2021/01/29 09:11:12;;;;;;;31.13;19.50;;;6.90;64.50;;;;;;6155616;23;20005;-83
2021/01/29 09:13:41;;;;;;;35.08;21.85;;;7.10;64.30;;;;;;6154425;23;20015;-86
2021/01/29 09:16:23;;;;;;;35.97;22.63;;;7.10;64.80;;;;;;6127338;23;20329;-84
2021/01/29 09:19:04;;;;;;;33.13;20.05;;;7.60;64.00;;;;;;6156216;23;20032;-87
2021/01/29 09:21:41;;;;;;;27.70;17.50;;;7.60;62.20;;;;;;6129411;23;20013;-83
2021/01/29 09:24:18;;;;;;;31.42;19.17;;;7.70;60.90;;;;;;6156200;23;20001;-83
2021/01/29 09:27:05;;;;;;;36.47;19.55;;;8.00;60.10;;;;;;6128190;23;20009;-84
2021/01/29 09:29:59;;;;;;;37.55;18.58;;;8.00;59.70;;;;;;6129253;23;20490;-85
2021/01/29 09:32:50;;;;;;;25.73;15.23;;;8.70;58.90;;;;;;6129622;23;20459;-83
2021/01/29 09:35:28;;;;;;;22.95;14.55;;;8.60;56.60;;;;;;6086904;23;20017;-85
2021/01/29 09:37:55;;;;;;;20.95;13.50;;;8.90;56.00;;;;;;6155456;23;20032;-85
2021/01/29 09:40:33;;;;;;;20.05;12.25;;;9.20;54.70;;;;;;6128150;23;20002;-83
2021/01/29 09:43:14;;;;;;;25.40;11.30;;;9.40;53.90;;;;;;6154318;23;20093;-87
2021/01/29 09:45:42;;;;;;;15.73;10.13;;;9.90;52.60;;;;;;6155161;23;20249;-85
2021/01/29 09:48:12;;;;;;;15.93;10.05;;;8.50;51.90;;;;;;6128691;23;20017;-87
2021/01/29 09:50:39;;;;;;;13.15;9.18;;;8.50;53.50;;;;;;6128714;23;20010;-84
2021/01/29 09:53:05;;;;;;;14.90;10.02;;;9.10;52.50;;;;;;6153338;23;20383;-80
2021/01/29 09:55:52;;;;;;;13.95;9.85;;;9.80;52.50;;;;;;6126729;23;20448;-83
2021/01/29 09:58:34;;;;;;;15.93;10.20;;;10.30;51.20;;;;;;6126022;23;20109;-84
2021/01/29 10:01:16;;;;;;;20.55;12.68;;;10.10;50.60;;;;;;6134500;23;20343;-81
2021/01/29 10:04:08;;;;;;;19.30;12.65;;;10.60;57.60;;;;;;6135247;23;20006;-92
2021/01/29 10:07:09;;;;;;;20.15;12.32;;;11.60;55.30;;;;;;6157774;23;20005;-91
2021/01/29 10:09:38;;;;;;;18.40;11.10;;;12.00;50.20;;;;;;6159431;23;20391;-85
2021/01/29 10:12:26;;;;;;;19.98;11.23;;;11.50;48.70;;;;;;6129889;23;20006;-81
2021/01/29 10:15:08;;;;;;;16.60;10.45;;;11.60;49.20;;;;;;6133141;23;20016;-81
2021/01/29 10:17:37;;;;;;;18.75;10.52;;;11.60;48.20;;;;;;6159927;23;20351;-85
2021/01/29 10:20:06;;;;;;;14.20;9.07;;;11.60;48.20;;;;;;6160000;23;20001;-85
2021/01/29 10:23:00;;;;;;;14.93;8.88;;;10.70;48.30;;;;;;6130902;23;20041;-88
2021/01/29 10:26:05;;;;;;;16.65;9.23;;;11.00;48.20;;;;;;6160921;23;20096;-90
2021/01/29 10:29:05;;;;;;;13.45;8.48;;;10.80;48.10;;;;;;6117480;23;20012;-82
2021/01/29 10:31:45;;;;;;;14.38;8.45;;;10.20;48.00;;;;;;6159159;23;20006;-86
2021/01/29 10:34:15;;;;;;;;;;;10.40;48.50;;;;;;6132820;23;20009;-87
2021/01/29 10:36:43;;;;;;;11.55;7.80;;;10.20;47.60;;;;;;6158228;23;19904;-84
2021/01/29 10:39:17;;;;;;;11.70;7.15;;;10.50;48.20;;;;;;6158926;23;20060;-86
2021/01/29 10:42:02;;;;;;;11.77;7.93;;;10.00;48.60;;;;;;6133723;23;20439;-86
2021/01/29 10:44:32;;;;;;;10.13;7.22;;;9.90;48.90;;;;;;6130819;23;20037;-88
2021/01/29 10:47:21;;;;;;;13.52;8.35;;;10.50;48.70;;;;;;6111035;23;20343;-87
2021/01/29 10:50:13;;;;;;;9.18;6.63;;;11.00;47.60;;;;;;6132742;23;20014;-81
2021/01/29 10:52:59;;;;;;;12.05;6.78;;;11.20;47.20;;;;;;6157637;23;20364;-77
2021/01/29 10:55:31;;;;;;;10.30;7.28;;;11.50;47.70;;;;;;6157761;23;20349;-84
2021/01/29 10:58:23;;;;;;;8.98;6.70;;;12.10;47.00;;;;;;6157846;23;20323;-84
2021/01/29 11:01:20;;;;;;;11.32;7.18;;;12.00;46.40;;;;;;6156881;23;20372;-85
2021/01/29 11:04:23;;;;;;;10.77;7.40;;;12.40;45.60;;;;;;6129734;23;20025;-85
2021/01/29 11:06:59;;;;;;;10.07;6.70;;;12.80;45.50;;;;;;6155432;23;20002;-84
2021/01/29 11:10:17;;;;;;;10.52;6.63;;;13.00;45.10;;;;;;6155336;23;20593;-85
2021/01/29 11:13:03;;;;;;;9.80;6.97;;;12.80;44.30;;;;;;6150380;23;20016;-82
2021/01/29 11:15:47;;;;;;;9.30;6.50;;;12.80;44.40;;;;;;6127687;23;20021;-84
2021/01/29 11:18:30;;;;;;;10.43;6.65;;;13.00;44.70;;;;;;6153943;23;20016;-83
2021/01/29 11:21:09;;;;;;;9.13;6.32;;;13.10;44.00;;;;;;6154368;23;20010;-83
2021/01/29 11:24:02;;;;;;;11.20;6.15;;;13.20;44.30;;;;;;6154038;23;20012;-81
2021/01/29 11:26:46;;;;;;;10.05;6.95;;;13.20;43.90;;;;;;6154523;23;20002;-82
2021/01/29 11:29:22;;;;;;;10.23;5.85;;;12.90;44.00;;;;;;6153652;23;19994;-84
2021/01/29 11:32:04;;;;;;;9.48;6.20;;;12.70;44.30;;;;;;6127728;23;20010;-83
2021/01/29 11:34:33;;;;;;;8.50;6.35;;;12.50;44.60;;;;;;6126400;23;20088;-81
2021/01/29 11:37:06;;;;;;;10.35;6.65;;;12.90;44.50;;;;;;6153588;23;20051;-82
2021/01/29 11:39:48;;;;;;;10.35;6.47;;;12.70;44.20;;;;;;6153049;23;20008;-82
2021/01/29 11:42:30;;;;;;;9.68;6.43;;;13.20;44.30;;;;;;6152994;23;20388;-83
2021/01/29 11:45:11;;;;;;;10.55;6.28;;;13.30;44.10;;;;;;6127547;23;20001;-81
2021/01/29 11:47:49;;;;;;;16.05;7.50;;;13.00;43.90;;;;;;6155793;23;20009;-87
2021/01/29 11:50:59;;;;;;;11.75;6.90;;;13.10;44.70;;;;;;6156723;23;20309;-85
2021/01/29 11:53:42;;;;;;;10.02;6.32;;;13.00;47.20;;;;;;6126528;23;20009;-86
2021/01/29 11:56:17;;;;;;;13.70;7.00;;;13.30;46.70;;;;;;6130085;23;20425;-84
2021/01/29 11:59:21;;;;;;;9.98;6.68;;;14.00;46.70;;;;;;6156154;23;19998;-85
2021/01/29 12:02:08;;;;;;;10.05;6.82;;;14.00;46.20;;;;;;6037025;23;20008;-82
2021/01/29 12:05:04;;;;;;;11.75;7.07;;;14.30;45.50;;;;;;6124866;23;20065;-83
2021/01/29 12:07:50;;;;;;;10.55;6.38;;;13.80;47.40;;;;;;6156383;23;20012;-85
2021/01/29 12:10:39;;;;;;;10.30;6.35;;;14.70;45.70;;;;;;6130036;23;20021;-82
2021/01/29 12:13:21;;;;;;;10.40;6.63;;;15.00;45.10;;;;;;6128851;23;20005;-83
2021/01/29 12:15:59;;;;;;;9.38;6.63;;;15.40;45.50;;;;;;6154797;23;20010;-83
2021/01/29 12:18:28;;;;;;;10.40;6.60;;;14.40;45.70;;;;;;6154290;23;20040;-80
2021/01/29 12:21:08;;;;;;;10.80;6.65;;;14.50;44.50;;;;;;6154570;23;20006;-80
2021/01/29 12:23:55;;;;;;;11.40;6.68;;;14.90;44.00;;;;;;6129385;23;20013;-80
2021/01/29 12:26:45;;;;;;;9.50;6.93;;;15.30;45.70;;;;;;6154750;23;20005;-82
2021/01/29 12:29:39;;;;;;;13.00;6.87;;;15.60;43.70;;;;;;6128924;23;20013;-83
2021/01/29 12:32:20;;;;;;;10.18;6.55;;;15.60;43.80;;;;;;6154700;23;20238;-83
2021/01/29 12:35:03;;;;;;;10.63;6.88;;;15.40;45.20;;;;;;6155302;23;20059;-83
2021/01/29 12:37:35;;;;;;;10.80;6.85;;;15.20;44.60;;;;;;6155500;23;20001;-80
2021/01/29 12:40:28;;;;;;;9.90;6.68;;;15.30;44.20;;;;;;6157685;23;20017;-86
2021/01/29 12:43:03;;;;;;;10.32;6.38;;;14.80;45.60;;;;;;6136612;23;20052;-89
2021/01/29 12:45:55;;;;;;;10.95;6.30;;;15.40;44.50;;;;;;6134278;23;20006;-86
2021/01/29 12:48:41;;;;;;;10.48;6.38;;;16.00;43.80;;;;;;6107157;23;20008;-85
2021/01/29 12:51:36;;;;;;;8.73;5.88;;;16.40;43.90;;;;;;6159310;23;20361;-87
2021/01/29 12:54:05;;;;;;;10.93;5.97;;;16.10;42.50;;;;;;6121281;23;20029;-89
2021/01/29 12:56:36;;;;;;;9.50;6.03;;;16.10;43.90;;;;;;6162702;23;20343;-87
2021/01/29 12:59:05;;;;;;;9.77;6.05;;;16.40;43.80;;;;;;6136286;23;20006;-89
2021/01/29 13:01:56;;;;;;;11.65;6.00;;;16.80;43.40;;;;;;6161302;23;20080;-83
2021/01/29 13:04:25;;;;;;;9.77;5.88;;;16.90;42.70;;;;;;6136591;23;20017;-87
2021/01/29 13:07:15;;;;;;;10.05;5.45;;;17.20;41.30;;;;;;6136256;23;20010;-86
2021/01/29 13:09:53;;;;;;;9.20;5.50;;;16.80;40.70;;;;;;6162107;23;20017;-85
2021/01/29 13:12:35;;;;;;;9.13;5.43;;;16.00;40.90;;;;;;6131609;23;20089;-81
2021/01/29 13:15:21;;;;;;;9.40;5.57;;;15.40;42.20;;;;;;6154066;23;20020;-84
2021/01/29 13:17:57;;;;;;;16.25;6.28;;;14.50;42.80;;;;;;6129287;23;20072;-86
2021/01/29 13:20:30;;;;;;;10.88;6.40;;;14.50;44.00;;;;;;6155378;23;20006;-84
2021/01/29 13:23:31;;;;;;;8.38;5.82;;;16.10;42.70;;;;;;6156001;23;20021;-85
2021/01/29 13:25:59;;;;;;;;;;;16.60;40.90;;;;;;6036344;23;20139;-85
2021/01/29 13:28:28;;;;;;;9.30;5.88;;;16.10;40.90;;;;;;6149645;23;19901;-85
2021/01/29 13:30:56;;;;;;;11.70;6.75;;;15.30;43.20;;;;;;6129195;23;20013;-83
2021/01/29 13:33:32;;;;;;;9.05;5.75;;;14.40;43.30;;;;;;6154605;23;20305;-82
2021/01/29 13:36:19;;;;;;;11.05;6.38;;;14.10;44.50;;;;;;6131281;23;20025;-89
2021/01/29 13:38:45;;;;;;;14.13;6.88;;;13.40;44.80;;;;;;6101528;23;20022;-89
2021/01/29 13:41:20;;;;;;;13.38;8.20;;;13.00;45.50;;;;;;6106111;23;20009;-85
2021/01/29 13:43:47;;;;;;;10.45;6.35;;;12.50;46.30;;;;;;6103733;23;20006;-90
2021/01/29 13:46:59;;;;;;;9.95;6.65;;;12.30;47.10;;;;;;6102785;23;20400;-86
2021/01/29 13:49:27;;;;;;;10.95;6.88;;;12.20;47.50;;;;;;6101121;23;20029;-89
2021/01/29 13:51:57;;;;;;;10.35;6.93;;;12.00;48.10;;;;;;6124735;23;20002;-89
2021/01/29 13:54:41;;;;;;;11.73;6.95;;;12.00;48.20;;;;;;6126830;23;20014;-87
2021/01/29 13:57:27;;;;;;;11.45;7.05;;;11.80;49.10;;;;;;6099211;23;20076;-82